Time;durP1;ratioP1;P1;durP2;ratioP2;P2;SDS_P1;SDS_P2;PMS_P1;PMS_P2;Temp;Humidity;BMP_temperature;BMP_pressure;BME280_temperature;BME280_humidity;BME280_pressure;Samples;Min_cycle;Max_cycle;Signal;HPM_P1;HPM_P2
2023/01/13 00:03:49;;;;;;;0.47;0.10;;;;;;;12.83;100.00;99598.75;8395566;28;20040;-55
2023/01/13 00:07:49;;;;;;;0.10;0.10;;;;;;;12.79;100.00;99592.84;8396561;28;20035;-55
2023/01/13 00:11:49;;;;;;;0.00;0.00;;;;;;;12.93;98.85;99593.97;8396322;28;20111;-55
2023/01/13 00:15:55;;;;;;;0.25;0.10;;;;;;;12.93;98.61;99588.53;8429438;28;20123;-55
2023/01/13 00:19:56;;;;;;;0.10;0.10;;;;;;;12.93;98.72;99593.97;8395565;28;20556;-55
2023/01/13 00:23:56;;;;;;;0.13;0.10;;;;;;;12.95;97.69;99603.59;8396224;28;20425;-55
2023/01/13 00:27:56;;;;;;;2.08;0.20;;;;;;;12.85;95.51;99588.56;8396177;28;20067;-55
2023/01/13 00:31:57;;;;;;;0.10;0.10;;;;;;;12.79;96.32;99592.84;8395121;28;20409;-55
2023/01/13 00:36:00;;;;;;;2.05;0.28;;;;;;;12.69;96.75;99592.19;8395089;28;20045;-55
2023/01/13 00:40:00;;;;;;;0.40;0.15;;;;;;;12.64;94.28;99582.91;8395585;28;20071;-55
2023/01/13 00:44:01;;;;;;;0.35;0.20;;;;;;;12.60;89.22;99585.13;8395304;28;20041;-54
2023/01/13 00:48:01;;;;;;;0.75;0.20;;;;;;;12.57;84.84;99585.50;8394547;28;20036;-55
2023/01/13 00:52:01;;;;;;;3.20;0.20;;;;;;;12.59;82.80;99579.91;8393630;28;20520;-54
2023/01/13 00:56:05;;;;;;;1.13;0.20;;;;;;;12.44;84.62;99581.66;8387640;28;20063;-54
2023/01/13 01:00:06;;;;;;;1.65;0.30;;;;;;;12.42;84.64;99578.25;8427691;28;20557;-55
2023/01/13 01:04:07;;;;;;;1.25;0.20;;;;;;;12.47;84.48;99575.88;8395106;28;20032;-55
2023/01/13 01:08:07;;;;;;;0.60;0.20;;;;;;;12.53;84.36;99586.84;8394518;28;20112;-55
2023/01/13 01:12:08;;;;;;;1.45;0.20;;;;;;;12.51;83.68;99593.47;8394488;28;20039;-55
2023/01/13 01:16:13;;;;;;;2.67;0.35;;;;;;;12.45;82.93;99599.59;8394840;28;20044;-55
2023/01/13 01:20:13;;;;;;;1.90;0.55;;;;;;;12.44;81.07;99609.56;8390461;28;20036;-54
2023/01/13 01:24:15;;;;;;;1.35;0.50;;;;;;;12.37;78.14;99607.75;8394356;28;20032;-54
2023/01/13 01:28:18;;;;;;;4.47;0.60;;;;;;;12.26;78.47;99617.09;8394023;28;20508;-55
2023/01/13 01:32:18;;;;;;;8.27;0.77;;;;;;;12.08;79.79;99618.31;8391267;28;20127;-55
2023/01/13 01:36:20;;;;;;;4.28;0.68;;;;;;;11.75;81.71;99644.59;8391474;28;20036;-55
2023/01/13 01:40:21;;;;;;;5.95;0.50;;;;;;;11.40;85.03;99645.72;8393945;28;20555;-55
2023/01/13 01:44:44;;;;;;;3.70;0.55;;;;;;;11.07;88.61;99638.53;8425725;28;20448;-54
2023/01/13 01:48:45;;;;;;;3.47;0.50;;;;;;;10.90;90.09;99625.16;8393183;28;20113;-56
2023/01/13 01:52:52;;;;;;;1.60;0.30;;;;;;;10.85;89.09;99595.03;8393089;28;20059;-55
2023/01/13 01:56:54;;;;;;;1.08;0.43;;;;;;;10.86;92.12;99581.34;8391030;28;20067;-55
2023/01/13 02:00:55;;;;;;;1.10;0.70;;;;;;;10.86;94.15;99594.06;8424792;28;20076;-55
2023/01/13 02:04:57;;;;;;;2.85;0.70;;;;;;;10.89;94.63;99601.84;8392704;28;20509;-55
2023/01/13 02:08:59;;;;;;;3.25;0.40;;;;;;;11.00;92.71;99583.44;8392278;28;20068;-54
2023/01/13 02:13:03;;;;;;;2.33;0.60;;;;;;;11.01;92.36;99589.69;8424768;28;20121;-56
2023/01/13 02:17:22;;;;;;;1.95;0.40;;;;;;;10.92;91.25;99590.69;8392824;28;20395;-54
2023/01/13 02:21:55;;;;;;;1.95;0.50;;;;;;;10.88;89.66;99605.53;8391459;28;20037;-54
2023/01/13 02:26:16;;;;;;;0.93;0.20;;;;;;;10.96;87.57;99579.38;8392304;28;20044;-55
2023/01/13 02:31:45;;;;;;;2.22;0.57;;;;;;;11.00;86.20;99610.47;8391712;28;20527;-54
2023/01/13 02:35:02;;;;;;;2.83;0.47;;;;;;;10.92;85.00;99596.91;8392207;28;20040;-55
2023/01/13 02:39:14;;;;;;;1.88;0.40;;;;;;;10.93;84.33;99598.63;8392238;28;20163;-54
2023/01/13 02:44:22;;;;;;;1.95;0.30;;;;;;;10.91;83.92;99594.38;8391504;28;20045;-56
2023/01/13 02:47:46;;;;;;;1.48;0.30;;;;;;;10.80;84.46;99600.94;8391445;28;20050;-55
2023/01/13 02:51:48;;;;;;;4.30;0.50;;;;;;;10.66;84.16;99601.59;8391699;28;20497;-55
2023/01/13 02:55:52;;;;;;;3.60;0.40;;;;;;;10.64;84.62;99598.19;8391556;28;20047;-56
2023/01/13 02:59:54;;;;;;;4.53;0.50;;;;;;;10.63;84.74;99596.50;8391696;28;20040;-54
2023/01/13 03:03:54;;;;;;;5.18;0.80;;;;;;;10.66;84.33;99595.31;8391385;28;20036;-54
2023/01/13 03:12:25;;;;;;;7.82;0.98;;;;;;;10.71;83.67;99572.22;8315155;27;20393;-54
2023/01/13 03:16:55;;;;;;;9.35;1.00;;;;;;;10.63;83.86;99577.59;8321387;28;20041;-53
2023/01/13 03:21:08;;;;;;;7.13;0.98;;;;;;;10.53;83.69;99579.59;8320257;28;20046;-52
2023/01/13 03:25:14;;;;;;;8.02;1.25;;;;;;;10.46;84.18;99569.59;8321291;28;20041;-53
2023/01/13 03:29:24;;;;;;;9.35;1.00;;;;;;;10.51;83.81;99565.38;8321016;28;20409;-53
2023/01/13 03:33:34;;;;;;;9.20;1.17;;;;;;;10.55;83.98;99577.56;8320429;28;20053;-54
2023/01/13 03:37:39;;;;;;;7.93;1.10;;;;;;;10.57;83.97;99580.94;8320793;28;20574;-54
2023/01/13 03:41:47;;;;;;;13.77;2.03;;;;;;;10.63;83.03;99576.72;8319703;28;20041;-52
2023/01/13 03:45:55;;;;;;;8.65;1.30;;;;;;;10.61;83.42;99586.88;8320068;28;20044;-55
2023/01/13 03:50:12;;;;;;;9.05;1.75;;;;;;;10.58;83.99;99589.91;8319488;28;20052;-53
2023/01/13 03:54:15;;;;;;;10.10;1.77;;;;;;;10.55;84.12;99577.56;8320152;28;20176;-58
2023/01/13 03:58:22;;;;;;;11.77;2.15;;;;;;;10.56;83.96;99576.56;8320212;28;20040;-54
2023/01/13 04:02:34;;;;;;;14.20;2.08;;;;;;;10.58;83.75;99576.41;8319387;28;20042;-53
2023/01/13 04:11:11;;;;;;;18.48;2.08;;;;;;;10.43;83.57;99572.63;8422522;27;20352;-53
2023/01/13 04:15:11;;;;;;;16.38;2.50;;;;;;;10.36;83.78;99588.63;8420841;28;20497;-54
2023/01/13 04:19:12;;;;;;;17.25;2.22;;;;;;;10.24;84.59;99600.72;8420082;28;20456;-54
2023/01/13 04:23:13;;;;;;;16.73;1.65;;;;;;;10.17;84.29;99588.88;8419176;28;20074;-53
2023/01/13 04:27:13;;;;;;;21.67;2.40;;;;;;;10.19;84.15;99586.88;8386811;28;20037;-54
2023/01/13 04:31:14;;;;;;;18.17;2.47;;;;;;;10.11;85.11;99583.25;8386338;28;20048;-54
2023/01/13 04:35:15;;;;;;;23.60;2.35;;;;;;;10.08;84.82;99589.81;8400114;27;20516;-55
2023/01/13 04:39:15;;;;;;;13.82;2.42;;;;;;;10.11;84.07;99594.91;8419916;27;20408;-54
2023/01/13 04:43:16;;;;;;;22.05;2.10;;;;;;;10.12;83.58;99596.59;8419621;27;20078;-53
2023/01/13 04:47:16;;;;;;;18.05;2.55;;;;;;;10.16;82.96;99608.78;8419467;27;20047;-54
2023/01/13 04:51:17;;;;;;;19.60;2.70;;;;;;;10.16;83.18;99603.38;8419528;27;20043;-54
2023/01/13 04:55:19;;;;;;;10.98;1.75;;;;;;;10.12;83.34;99590.38;8419350;27;20048;-55
2023/01/13 04:59:19;;;;;;;18.42;2.83;;;;;;;10.09;83.76;99585.28;8419000;27;20551;-54
2023/01/13 05:03:20;;;;;;;17.90;1.80;;;;;;;10.12;83.57;99593.91;8419417;27;20383;-54
2023/01/13 05:07:20;;;;;;;10.15;1.75;;;;;;;10.16;82.90;99570.97;8418606;27;20448;-55
2023/01/13 05:17:13;;;;;;;18.45;2.20;;;;;;;10.03;83.86;99581.31;8404743;27;20420;-54
2023/01/13 05:20:03;;;;;;;8.55;1.92;;;;;;;10.04;84.20;99577.63;8405543;28;20090;-55
2023/01/13 05:25:34;;;;;;;11.65;2.20;;;;;;;9.95;84.13;99589.38;8373167;28;20085;-54
2023/01/13 05:28:23;;;;;;;11.10;2.08;;;;;;;9.98;84.03;99578.28;8381042;28;20045;-54
2023/01/13 05:32:26;;;;;;;5.72;1.13;;;;;;;10.09;82.88;99579.88;8362148;28;20083;-53
2023/01/13 05:36:27;;;;;;;9.57;1.45;;;;;;;10.18;82.84;99587.03;8383600;28;20040;-54
2023/01/13 05:44:48;;;;;;;7.25;1.40;;;;;;;10.22;83.33;99575.75;8361233;28;20079;-55
2023/01/13 05:48:48;;;;;;;12.32;1.42;;;;;;;10.23;83.46;99576.56;8389680;28;20048;-55
2023/01/13 05:52:49;;;;;;;7.60;1.08;;;;;;;10.20;83.75;99587.69;8394052;28;20032;-54
2023/01/13 05:56:49;;;;;;;8.82;1.10;;;;;;;10.05;84.38;99606.31;8387996;28;20082;-55
2023/01/13 06:00:50;;;;;;;7.35;1.60;;;;;;;10.02;84.62;99612.03;8394580;28;20060;-54
2023/01/13 06:04:51;;;;;;;7.50;1.45;;;;;;;9.97;84.97;99620.63;8394534;28;20041;-54
2023/01/13 06:08:51;;;;;;;5.50;1.40;;;;;;;9.97;85.51;99625.16;8394523;28;20082;-55
2023/01/13 06:12:52;;;;;;;7.57;0.98;;;;;;;10.07;85.12;99630.50;8393228;28;20067;-53
2023/01/13 06:16:53;;;;;;;10.50;1.67;;;;;;;10.15;85.60;99628.69;8392859;28;20090;-54
2023/01/13 06:20:53;;;;;;;7.85;1.70;;;;;;;10.12;85.81;99615.50;8393994;28;20512;-54
2023/01/13 06:24:54;;;;;;;11.73;1.63;;;;;;;10.16;85.44;99625.00;8394474;28;20044;-54
2023/01/13 06:28:54;;;;;;;10.38;0.73;;;;;;;10.12;85.39;99634.41;8388673;28;20041;-55
2023/01/13 06:32:58;;;;;;;8.35;1.70;;;;;;;10.21;84.06;99641.53;8391490;28;20471;-55
2023/01/13 06:37:01;;;;;;;10.60;2.23;;;;;;;10.18;83.30;99628.38;8390377;28;20087;-56
2023/01/13 06:41:02;;;;;;;8.65;0.88;;;;;;;10.13;84.03;99644.22;8377893;28;20497;-54
2023/01/13 06:45:03;;;;;;;6.15;0.98;;;;;;;10.03;83.70;99643.41;8376002;28;20087;-55
2023/01/13 06:49:04;;;;;;;5.88;0.95;;;;;;;10.14;83.49;99648.59;8357246;28;20064;-54
2023/01/13 06:53:04;;;;;;;4.85;0.65;;;;;;;10.15;83.77;99661.09;8383721;28;20044;-55
2023/01/13 06:57:05;;;;;;;6.13;1.05;;;;;;;10.13;84.21;99667.66;8388357;28;20056;-55
2023/01/13 07:01:05;;;;;;;4.40;0.80;;;;;;;10.02;84.54;99666.03;8378708;28;20040;-55
2023/01/13 07:05:06;;;;;;;7.85;1.02;;;;;;;9.83;85.27;99660.84;8388080;28;20177;-55
2023/01/13 07:09:07;;;;;;;6.95;0.93;;;;;;;9.81;83.90;99668.22;8387868;28;20044;-55
2023/01/13 07:17:28;;;;;;;3.38;0.43;;;;;;;9.78;84.29;99679.34;8393035;28;20094;-55
2023/01/13 07:21:28;;;;;;;2.58;0.50;;;;;;;9.63;85.66;99691.69;8392409;28;20127;-55
2023/01/13 07:25:31;;;;;;;6.15;0.75;;;;;;;9.68;85.58;99700.19;8393255;28;20071;-55
2023/01/13 07:30:09;;;;;;;5.15;0.98;;;;;;;9.67;87.14;99693.09;8392227;28;20045;-55
2023/01/13 07:34:10;;;;;;;3.88;0.60;;;;;;;9.64;87.93;99693.41;8392414;28;20050;-55
2023/01/13 07:38:10;;;;;;;2.63;0.68;;;;;;;9.62;86.61;99679.22;8393175;28;20041;-56
2023/01/13 07:43:39;;;;;;;3.85;0.70;;;;;;;9.56;86.13;99679.81;8392273;28;20051;-54
2023/01/13 07:46:32;;;;;;;2.63;0.68;;;;;;;9.42;87.05;99699.22;8392550;28;20036;-56
2023/01/13 07:50:33;;;;;;;3.40;1.00;;;;;;;9.40;88.05;99701.25;8391885;28;20067;-56
2023/01/13 07:54:33;;;;;;;7.22;1.10;;;;;;;9.36;89.01;99705.25;8392518;28;20036;-55
2023/01/13 07:58:35;;;;;;;5.25;1.00;;;;;;;9.35;89.07;99711.66;8392495;28;20059;-55
2023/01/13 08:02:35;;;;;;;6.45;1.60;;;;;;;9.29;89.70;99714.94;8391960;28;20107;-54
2023/01/13 08:06:38;;;;;;;10.25;1.30;;;;;;;9.43;88.55;99703.66;8392077;28;20044;-55
2023/01/13 08:10:39;;;;;;;8.43;1.33;;;;;;;9.54;87.35;99712.34;8391359;28;20107;-54
2023/01/13 08:14:39;;;;;;;16.98;1.58;;;;;;;9.63;87.13;99713.28;8391960;28;20036;-55
2023/01/13 08:18:41;;;;;;;7.97;1.65;;;;;;;9.70;86.74;99708.97;8390515;28;20037;-54
2023/01/13 08:22:43;;;;;;;8.70;1.80;;;;;;;9.80;86.18;99725.94;8372403;28;20037;-55
2023/01/13 08:26:43;;;;;;;15.48;1.75;;;;;;;9.96;84.53;99715.28;8388130;28;20102;-55
2023/01/13 08:30:44;;;;;;;13.30;2.03;;;;;;;10.04;84.67;99739.66;8388716;28;20037;-54
2023/01/13 08:34:44;;;;;;;10.38;2.10;;;;;;;10.15;83.79;99747.50;8391117;28;20072;-54
2023/01/13 08:38:44;;;;;;;22.33;2.42;;;;;;;10.24;83.07;99760.09;8391272;28;20074;-54
2023/01/13 08:42:45;;;;;;;12.13;2.00;;;;;;;10.31;82.78;99753.03;8390815;28;20060;-54
2023/01/13 08:46:45;;;;;;;19.92;2.22;;;;;;;10.42;82.27;99766.31;8383473;28;20033;-54
2023/01/13 08:50:46;;;;;;;15.13;3.20;;;;;;;10.45;81.73;99754.31;8357114;28;20119;-54
2023/01/13 08:54:46;;;;;;;14.65;2.45;;;;;;;10.56;81.31;99765.75;8373122;28;20028;-55
2023/01/13 08:58:47;;;;;;;11.82;1.92;;;;;;;11.32;77.60;99762.06;8396214;28;20120;-54
2023/01/13 09:02:47;;;;;;;10.68;1.80;;;;;;;12.14;74.43;99759.34;8397040;28;20048;-55
2023/01/13 09:06:48;;;;;;;15.98;2.90;;;;;;;12.60;72.05;99752.41;8397108;28;20106;-54
2023/01/13 09:10:49;;;;;;;11.73;2.03;;;;;;;11.93;74.37;99762.56;8396305;28;20102;-55
2023/01/13 09:14:50;;;;;;;21.33;2.20;;;;;;;12.52;72.63;99764.09;8396993;28;20116;-55
2023/01/13 09:18:50;;;;;;;15.05;2.90;;;;;;;13.21;69.31;99750.69;8396921;28;20419;-55
2023/01/13 09:22:51;;;;;;;18.65;2.00;;;;;;;13.46;67.78;99765.03;8396854;28;20061;-54
2023/01/13 09:26:51;;;;;;;11.68;2.03;;;;;;;12.97;69.42;99750.78;8396389;28;20033;-55
2023/01/13 09:30:52;;;;;;;19.73;2.40;;;;;;;13.44;68.69;99753.50;8396372;28;20075;-55
2023/01/13 09:34:59;;;;;;;9.95;1.90;;;;;;;13.55;68.20;99753.09;8396200;28;20037;-55
2023/01/13 09:38:59;;;;;;;15.30;2.55;;;;;;;13.47;67.35;99755.84;8394688;28;20048;-55
2023/01/13 09:44:13;;;;;;;17.90;2.40;;;;;;;13.50;67.46;99760.94;8395176;28;20090;-55
2023/01/13 09:47:47;;;;;;;16.20;2.47;;;;;;;12.90;68.54;99757.09;8394279;28;20390;-54
2023/01/13 09:51:57;;;;;;;16.70;2.22;;;;;;;13.37;68.23;99766.09;8396078;28;20039;-55
2023/01/13 09:55:58;;;;;;;18.17;2.45;;;;;;;13.86;66.92;99767.50;8395946;28;20040;-54
2023/01/13 09:59:59;;;;;;;17.38;2.15;;;;;;;14.09;66.78;99756.66;8395156;28;20051;-56
2023/01/13 10:04:09;;;;;;;19.02;2.75;;;;;;;14.01;66.13;99759.41;8375376;28;20040;-55
2023/01/13 10:08:16;;;;;;;21.23;2.97;;;;;;;14.50;64.80;99767.03;8363418;28;20036;-55
2023/01/13 10:13:24;;;;;;;14.35;2.30;;;;;;;14.82;64.33;99771.31;8364706;28;20056;-55
2023/01/13 10:17:24;;;;;;;14.27;2.15;;;;;;;14.52;63.33;99786.72;8361269;28;20060;-55
2023/01/13 10:21:53;;;;;;;14.82;2.17;;;;;;;14.14;65.31;99763.22;8360461;28;20071;-55
2023/01/13 10:26:06;;;;;;;15.85;2.33;;;;;;;14.71;63.35;99772.63;8361918;28;20033;-56
2023/01/13 10:30:19;;;;;;;15.55;2.30;;;;;;;14.61;63.50;99784.78;8359754;28;20095;-55
2023/01/13 10:34:22;;;;;;;19.17;2.78;;;;;;;15.12;62.76;99779.31;8366275;28;20062;-55
2023/01/13 10:38:40;;;;;;;19.60;2.30;;;;;;;14.89;63.89;99794.91;8360569;28;20444;-54
2023/01/13 10:42:41;;;;;;;12.40;2.25;;;;;;;13.92;64.70;99793.97;8360346;28;20578;-54
2023/01/13 10:46:58;;;;;;;13.75;2.80;;;;;;;13.16;67.01;99798.41;8370730;28;20414;-55
2023/01/13 10:51:16;;;;;;;22.25;2.72;;;;;;;12.61;68.83;99797.47;8359515;28;20039;-56
2023/01/13 10:55:35;;;;;;;16.85;2.72;;;;;;;12.53;70.42;99801.03;8370876;28;20132;-55
2023/01/13 10:59:36;;;;;;;19.88;2.83;;;;;;;12.90;68.74;99827.63;8359814;28;20040;-55
2023/01/13 11:03:40;;;;;;;10.52;2.20;;;;;;;13.14;67.95;99825.72;8379281;28;20060;-55
2023/01/13 11:07:49;;;;;;;15.38;2.95;;;;;;;12.72;69.13;99818.81;8371311;28;20033;-54
2023/01/13 11:11:54;;;;;;;17.83;2.60;;;;;;;12.79;67.65;99825.25;8364364;28;20524;-55
2023/01/13 11:16:06;;;;;;;15.95;2.80;;;;;;;12.60;69.11;99831.03;8359832;28;20477;-54
2023/01/13 11:24:49;;;;;;;14.90;2.45;;;;;;;12.12;71.13;99820.16;8280447;28;20397;-54
2023/01/13 11:29:01;;;;;;;15.70;2.67;;;;;;;12.12;69.97;99833.72;8255939;28;20050;-54
2023/01/13 11:33:25;;;;;;;16.95;2.95;;;;;;;12.19;69.56;99826.59;8292610;28;20044;-54
2023/01/13 11:37:29;;;;;;;12.32;2.47;;;;;;;12.21;69.52;99835.41;8348557;28;20584;-54
2023/01/13 11:42:19;;;;;;;18.63;3.08;;;;;;;12.11;69.66;99823.91;8336874;28;20421;-54
2023/01/13 11:46:11;;;;;;;22.75;2.92;;;;;;;12.56;69.29;99824.25;8335890;28;20041;-55
2023/01/13 11:50:21;;;;;;;13.32;2.20;;;;;;;12.39;67.95;99823.41;8327999;28;20045;-54
2023/01/13 11:58:58;;;;;;;15.10;2.50;;;;;;;11.95;69.92;99824.69;8334945;27;20469;-54
2023/01/13 12:03:29;;;;;;;15.90;2.15;;;;;;;11.98;69.63;99834.38;8322664;28;20041;-54
2023/01/13 12:12:35;;;;;;;13.80;1.95;;;;;;;11.93;70.45;99838.41;8304179;27;20971;-56
2023/01/13 12:16:45;;;;;;;9.93;1.60;;;;;;;12.10;74.32;99838.47;8288259;28;20046;-54
2023/01/13 12:25:05;;;;;;;18.73;2.67;;;;;;;12.05;76.35;99857.06;8357221;27;20392;-57
2023/01/13 12:29:13;;;;;;;13.70;2.20;;;;;;;11.84;76.08;99855.66;8352413;28;20056;-56
2023/01/13 12:33:46;;;;;;;12.50;2.33;;;;;;;11.75;76.81;99855.81;8342857;28;20053;-55
2023/01/13 12:38:16;;;;;;;12.82;1.85;;;;;;;11.73;78.17;99857.81;8332968;28;20047;-54
2023/01/13 12:46:53;;;;;;;13.38;2.60;;;;;;;12.26;75.64;99852.84;8336884;28;20041;-54
2023/01/13 12:51:00;;;;;;;14.02;3.40;;;;;;;12.37;74.47;99857.09;8341683;28;20490;-54
2023/01/13 12:55:06;;;;;;;12.88;3.03;;;;;;;12.11;74.97;99856.41;8341645;28;20030;-53
2023/01/13 13:03:35;;;;;;;13.98;2.17;;;;;;;11.48;79.90;99883.94;8299473;28;20894;-54
2023/01/13 13:07:42;;;;;;;14.57;1.95;;;;;;;11.14;82.80;99874.94;8289696;28;20042;-53
2023/01/13 13:21:02;;;;;;;19.17;3.03;;;;;;;10.39;91.72;99901.72;8303075;27;20374;-54
2023/01/13 13:29:47;;;;;;;12.00;2.60;;;;;;;10.36;91.45;99912.81;8442858;27;20117;-54
2023/01/13 13:34:12;;;;;;;16.73;2.63;;;;;;;10.28;93.40;99896.53;8433036;28;20067;-54
2023/01/13 13:47:35;;;;;;;13.80;2.75;;;;;;;10.48;90.58;99946.72;8420267;28;20070;-56
2023/01/13 13:51:41;;;;;;;14.02;2.08;;;;;;;10.49;90.33;99956.53;8422629;28;20119;-56
2023/01/13 13:55:51;;;;;;;20.15;2.53;;;;;;;10.58;90.44;99971.00;8429428;28;20039;-54
2023/01/13 13:59:56;;;;;;;13.73;2.85;;;;;;;10.57;90.82;99969.28;8415302;28;20044;-54
2023/01/13 14:04:06;;;;;;;17.17;2.40;;;;;;;10.47;90.48;99990.97;8405420;28;20033;-53
2023/01/13 14:08:15;;;;;;;12.02;2.50;;;;;;;10.44;91.77;100002.09;8405771;28;20410;-53
2023/01/13 14:12:22;;;;;;;12.32;1.75;;;;;;;10.31;92.73;100001.59;8411036;28;20040;-54
2023/01/13 14:16:23;;;;;;;15.38;2.42;;;;;;;10.21;95.29;100006.19;8411272;28;20039;-54
2023/01/13 14:20:23;;;;;;;5.47;1.48;;;;;;;10.37;95.42;100019.88;8411155;28;20032;-54
2023/01/13 14:24:24;;;;;;;16.00;2.17;;;;;;;10.52;93.34;100015.66;8411093;28;20178;-58
2023/01/13 14:28:29;;;;;;;15.15;2.70;;;;;;;10.65;91.88;100016.19;8381206;28;20067;-55
2023/01/13 14:32:35;;;;;;;14.85;2.72;;;;;;;10.79;91.45;100029.13;8412167;28;20124;-57
2023/01/13 14:36:37;;;;;;;17.45;3.25;;;;;;;10.86;90.37;100024.81;8403090;28;20083;-56
2023/01/13 14:40:43;;;;;;;17.00;2.97;;;;;;;10.90;90.16;100033.47;8388445;28;20497;-56
2023/01/13 14:44:47;;;;;;;16.23;2.55;;;;;;;10.85;89.08;100043.88;8386005;28;20090;-54
2023/01/13 14:48:51;;;;;;;14.82;3.10;;;;;;;10.83;88.16;100044.03;8390832;28;20038;-56
2023/01/13 14:52:54;;;;;;;25.67;3.28;;;;;;;10.75;89.21;100049.38;8397951;28;20045;-54
2023/01/13 14:57:24;;;;;;;14.70;2.13;;;;;;;10.62;88.91;100056.16;8399819;28;20071;-53
2023/01/13 15:01:34;;;;;;;20.58;3.20;;;;;;;10.51;88.36;100051.81;8373190;28;20488;-56
2023/01/13 15:05:37;;;;;;;28.55;3.45;;;;;;;10.56;88.10;100064.88;8385775;28;20049;-58
2023/01/13 15:09:40;;;;;;;22.92;2.78;;;;;;;10.53;87.77;100076.84;8390082;28;20051;-57
2023/01/13 15:13:44;;;;;;;30.42;3.40;;;;;;;10.47;91.22;100082.84;8406501;28;20069;-55
2023/01/13 15:17:46;;;;;;;17.13;2.72;;;;;;;10.30;92.17;100091.75;8389137;28;20240;-54
2023/01/13 15:21:46;;;;;;;16.23;3.30;;;;;;;10.29;92.22;100095.47;8387962;28;20049;-55
2023/01/13 15:25:47;;;;;;;24.05;3.30;;;;;;;10.30;92.71;100104.41;8383754;28;20135;-55
2023/01/13 15:29:48;;;;;;;18.80;3.33;;;;;;;10.32;92.02;100114.06;8382424;28;20048;-55
2023/01/13 15:33:48;;;;;;;23.00;4.45;;;;;;;10.31;92.28;100104.25;8385715;28;20040;-56
2023/01/13 15:37:50;;;;;;;23.85;3.80;;;;;;;10.32;92.67;100126.72;8380838;28;20181;-54
2023/01/13 15:46:45;;;;;;;25.48;3.92;;;;;;;10.30;93.04;100129.56;8377363;28;20048;-55
2023/01/13 15:50:35;;;;;;;20.80;3.95;;;;;;;10.19;94.13;100143.28;8349865;28;20352;-55
2023/01/13 15:54:35;;;;;;;20.75;3.15;;;;;;;10.04;96.59;100150.13;8364353;28;20040;-55
2023/01/13 15:58:36;;;;;;;22.80;3.25;;;;;;;9.94;98.29;100146.56;8384937;28;20090;-55
2023/01/13 16:02:36;;;;;;;25.83;3.97;;;;;;;9.89;98.82;100162.38;8382318;28;20090;-55
2023/01/13 16:06:37;;;;;;;21.10;3.22;;;;;;;9.86;99.45;100162.66;8385886;28;20048;-55
2023/01/13 16:10:37;;;;;;;16.65;3.38;;;;;;;9.86;98.91;100168.88;8386286;28;20122;-54
2023/01/13 16:14:38;;;;;;;21.08;3.42;;;;;;;9.91;96.84;100173.84;8386167;28;20039;-54
2023/01/13 16:18:38;;;;;;;15.82;2.80;;;;;;;9.92;94.47;100172.88;8381850;28;20044;-54
2023/01/13 16:22:39;;;;;;;17.00;2.78;;;;;;;9.99;93.45;100184.81;8377375;28;20064;-56
2023/01/13 16:26:39;;;;;;;17.95;2.20;;;;;;;10.06;91.83;100172.41;8381411;28;20411;-55
2023/01/13 16:30:40;;;;;;;19.10;2.50;;;;;;;10.15;90.47;100184.25;8409079;28;20043;-54
2023/01/13 16:34:41;;;;;;;20.98;2.85;;;;;;;10.20;90.67;100204.41;8363126;28;20802;-56
2023/01/13 16:38:42;;;;;;;21.00;3.05;;;;;;;10.14;92.49;100215.78;8416768;28;20071;-54
2023/01/13 16:42:42;;;;;;;21.10;4.13;;;;;;;9.92;97.59;100221.47;8384440;28;20040;-57
2023/01/13 16:46:44;;;;;;;14.90;2.47;;;;;;;9.64;100.00;100228.59;8381932;28;20036;-59
2023/01/13 16:50:45;;;;;;;20.15;3.33;;;;;;;9.50;100.00;100230.84;8381673;28;20040;-59
2023/01/13 16:54:45;;;;;;;16.52;3.67;;;;;;;9.53;100.00;100241.38;8392626;28;20131;-56
2023/01/13 16:58:45;;;;;;;22.55;3.60;;;;;;;9.55;99.62;100245.63;8397328;28;20043;-59
2023/01/13 17:02:47;;;;;;;22.30;3.42;;;;;;;9.56;98.34;100246.47;8415319;28;20089;-58
2023/01/13 17:07:04;;;;;;;14.30;2.72;;;;;;;9.59;97.24;100270.50;8416105;28;20043;-58
2023/01/13 17:11:05;;;;;;;17.25;3.03;;;;;;;9.58;96.92;100255.31;8386094;28;20125;-58
2023/01/13 17:15:06;;;;;;;14.82;2.30;;;;;;;9.53;97.32;100263.81;8399583;28;20066;-58
2023/01/13 17:19:06;;;;;;;27.45;3.58;;;;;;;9.52;97.94;100272.88;8399095;28;20378;-58
2023/01/13 17:23:07;;;;;;;20.70;4.07;;;;;;;9.60;97.74;100285.69;8415414;28;20123;-59
2023/01/13 17:27:07;;;;;;;23.15;3.75;;;;;;;9.68;97.25;100299.34;8415606;28;20059;-59
2023/01/13 17:31:08;;;;;;;21.85;3.42;;;;;;;9.74;96.37;100304.19;8418263;28;20040;-60
2023/01/13 17:35:09;;;;;;;24.30;3.67;;;;;;;9.82;94.13;100285.41;8417978;28;20131;-60
2023/01/13 17:39:15;;;;;;;22.08;4.63;;;;;;;9.85;93.52;100291.38;8400198;28;20043;-59
2023/01/13 17:43:16;;;;;;;21.92;3.63;;;;;;;10.01;91.53;100301.63;8417940;28;20554;-60
2023/01/13 17:47:16;;;;;;;26.15;4.55;;;;;;;10.19;89.36;100305.38;8399621;28;20519;-57
2023/01/13 17:51:18;;;;;;;30.23;4.40;;;;;;;10.27;88.49;100307.34;8417018;28;20074;-60
2023/01/13 17:55:19;;;;;;;19.92;3.47;;;;;;;10.35;87.56;100311.03;8417409;28;20040;-59
2023/01/13 17:59:21;;;;;;;22.42;3.58;;;;;;;10.37;86.48;100319.81;8412610;28;20074;-60
2023/01/13 18:03:22;;;;;;;23.83;3.70;;;;;;;10.46;85.52;100327.06;8398227;28;20040;-60
2023/01/13 18:07:22;;;;;;;20.58;3.10;;;;;;;10.49;84.85;100340.28;8416870;28;20038;-60
2023/01/13 18:11:23;;;;;;;22.58;3.63;;;;;;;10.50;84.27;100339.31;8415121;28;20525;-60
2023/01/13 18:15:23;;;;;;;29.73;3.67;;;;;;;10.51;84.59;100353.66;8423363;28;20055;-57
2023/01/13 18:28:04;;;;;;;23.42;3.15;;;;;;;10.60;82.54;100366.31;8401524;28;20067;-60
2023/01/13 18:32:06;;;;;;;21.92;2.95;;;;;;;10.55;82.76;100372.16;8423805;28;20101;-59
2023/01/13 18:36:07;;;;;;;17.60;3.30;;;;;;;10.61;81.70;100371.56;8423931;28;20055;-60
2023/01/13 18:40:10;;;;;;;19.17;3.70;;;;;;;10.64;80.85;100363.19;8423165;28;20064;-60
2023/01/13 18:44:11;;;;;;;24.95;3.38;;;;;;;10.64;80.44;100379.41;8423698;28;20245;-59
2023/01/13 18:48:11;;;;;;;19.15;2.90;;;;;;;10.67;80.25;100381.81;8420760;28;20539;-59
2023/01/13 18:52:12;;;;;;;18.15;2.90;;;;;;;10.64;80.30;100392.91;8420614;28;20040;-60
2023/01/13 18:56:13;;;;;;;20.92;3.10;;;;;;;10.64;80.63;100397.50;8421679;28;20036;-60
2023/01/13 19:00:17;;;;;;;16.52;2.95;;;;;;;10.57;81.39;100401.75;8420183;28;20047;-60
2023/01/13 19:04:18;;;;;;;23.73;3.38;;;;;;;10.58;81.04;100404.31;8422484;28;20143;-59
2023/01/13 19:08:19;;;;;;;23.52;3.40;;;;;;;10.62;80.76;100411.16;8427294;28;20052;-59
2023/01/13 19:12:25;;;;;;;23.35;3.40;;;;;;;10.62;81.21;100407.59;8426303;28;20182;-60
2023/01/13 19:16:25;;;;;;;19.33;3.25;;;;;;;10.64;81.04;100414.53;8428158;28;20186;-58
2023/01/13 19:20:25;;;;;;;25.48;3.00;;;;;;;10.65;81.05;100416.28;8427221;28;20603;-57
2023/01/13 19:24:26;;;;;;;28.60;3.33;;;;;;;10.65;80.52;100408.16;8427092;28;20044;-58
2023/01/13 19:28:27;;;;;;;21.98;3.72;;;;;;;10.68;80.50;100407.00;8422615;28;20040;-59
2023/01/13 19:32:29;;;;;;;13.40;2.78;;;;;;;10.61;80.80;100420.22;8421937;28;20040;-58
2023/01/13 19:36:29;;;;;;;17.38;2.97;;;;;;;10.57;80.90;100423.38;8424593;28;20134;-58
2023/01/13 19:40:30;;;;;;;20.52;3.17;;;;;;;10.59;80.71;100430.34;8424898;28;20047;-58
2023/01/13 19:45:33;;;;;;;22.58;3.42;;;;;;;10.54;81.30;100438.03;8423341;28;20080;-56
2023/01/13 19:48:51;;;;;;;20.92;3.40;;;;;;;10.47;81.33;100439.59;8425492;28;20040;-58
2023/01/13 19:52:52;;;;;;;19.70;2.45;;;;;;;10.47;80.69;100439.59;8426769;28;20047;-59
2023/01/13 19:56:52;;;;;;;24.08;3.22;;;;;;;10.44;80.50;100450.69;8419450;28;20047;-59
2023/01/13 20:00:53;;;;;;;25.90;3.22;;;;;;;10.43;80.52;100461.66;8412497;28;20521;-60
2023/01/13 20:04:56;;;;;;;23.63;3.50;;;;;;;10.34;81.40;100459.78;8419325;28;20111;-59
2023/01/13 20:08:57;;;;;;;22.85;2.78;;;;;;;10.26;81.88;100468.59;8424152;28;20054;-59
2023/01/13 20:12:58;;;;;;;16.98;2.88;;;;;;;10.26;81.63;100478.53;8422953;28;20043;-60
2023/01/13 20:16:59;;;;;;;30.65;4.25;;;;;;;10.29;81.70;100484.53;8425449;28;20485;-57
2023/01/13 20:21:02;;;;;;;16.42;3.15;;;;;;;10.22;82.16;100472.56;8425231;28;20140;-59
2023/01/13 20:25:03;;;;;;;24.00;3.65;;;;;;;10.29;81.81;100479.13;8425023;28;20174;-60
2023/01/13 20:29:03;;;;;;;24.30;4.07;;;;;;;10.36;81.59;100482.09;8373198;28;20056;-60